sensor_id;sensor_type;location;lat;lon;timestamp;P1;durP1;ratioP1;P2;durP2;ratioP2
3131;SDS011;62090;52.330;9.104;2023-07-29T00:02:26;3.20;;;1.97;;
3131;SDS011;62090;52.330;9.104;2023-07-29T00:04:57;1.80;;;1.67;;
3131;SDS011;62090;52.330;9.104;2023-07-29T00:07:27;3.70;;;1.90;;
3131;SDS011;62090;52.330;9.104;2023-07-29T00:09:57;3.30;;;1.70;;
3131;SDS011;62090;52.330;9.104;2023-07-29T00:12:30;3.97;;;1.90;;
3131;SDS011;62090;52.330;9.104;2023-07-29T00:15:00;2.23;;;1.77;;
3131;SDS011;62090;52.330;9.104;2023-07-29T00:17:30;2.53;;;2.30;;
3131;SDS011;62090;52.330;9.104;2023-07-29T00:20:00;3.20;;;1.93;;
3131;SDS011;62090;52.330;9.104;2023-07-29T00:22:33;1.83;;;1.63;;
3131;SDS011;62090;52.330;9.104;2023-07-29T00:25:03;2.60;;;2.27;;
3131;SDS011;62090;52.330;9.104;2023-07-29T00:27:36;3.80;;;1.80;;
3131;SDS011;62090;52.330;9.104;2023-07-29T00:30:07;10.43;;;2.37;;
3131;SDS011;62090;52.330;9.104;2023-07-29T00:32:37;3.80;;;1.63;;
3131;SDS011;62090;52.330;9.104;2023-07-29T00:35:08;3.57;;;2.00;;
3131;SDS011;62090;52.330;9.104;2023-07-29T00:37:38;5.87;;;2.00;;
3131;SDS011;62090;52.330;9.104;2023-07-29T00:40:12;4.40;;;1.97;;
3131;SDS011;62090;52.330;9.104;2023-07-29T00:42:49;2.17;;;1.97;;
3131;SDS011;62090;52.330;9.104;2023-07-29T00:45:19;2.70;;;1.93;;
3131;SDS011;62090;52.330;9.104;2023-07-29T00:47:49;6.57;;;2.10;;
3131;SDS011;62090;52.330;9.104;2023-07-29T00:50:19;2.13;;;1.80;;
3131;SDS011;62090;52.330;9.104;2023-07-29T00:52:50;2.33;;;1.80;;
3131;SDS011;62090;52.330;9.104;2023-07-29T00:55:22;3.17;;;2.40;;
3131;SDS011;62090;52.330;9.104;2023-07-29T00:57:55;2.20;;;1.90;;
3131;SDS011;62090;52.330;9.104;2023-07-29T01:00:25;2.23;;;1.90;;
3131;SDS011;62090;52.330;9.104;2023-07-29T01:02:56;5.13;;;2.40;;
3131;SDS011;62090;52.330;9.104;2023-07-29T01:05:26;4.93;;;2.43;;
3131;SDS011;62090;52.330;9.104;2023-07-29T01:08:03;3.33;;;2.27;;
3131;SDS011;62090;52.330;9.104;2023-07-29T01:10:39;4.93;;;2.30;;
3131;SDS011;62090;52.330;9.104;2023-07-29T01:13:19;3.00;;;2.70;;
3131;SDS011;62090;52.330;9.104;2023-07-29T01:15:58;2.60;;;2.40;;
3131;SDS011;62090;52.330;9.104;2023-07-29T01:18:32;2.40;;;2.20;;
3131;SDS011;62090;52.330;9.104;2023-07-29T01:21:07;3.33;;;2.40;;
3131;SDS011;62090;52.330;9.104;2023-07-29T01:23:40;2.53;;;2.00;;
3131;SDS011;62090;52.330;9.104;2023-07-29T01:26:10;3.10;;;2.50;;
3131;SDS011;62090;52.330;9.104;2023-07-29T01:28:40;3.03;;;2.07;;
3131;SDS011;62090;52.330;9.104;2023-07-29T01:31:16;2.50;;;2.10;;
3131;SDS011;62090;52.330;9.104;2023-07-29T01:33:53;2.90;;;2.37;;
3131;SDS011;62090;52.330;9.104;2023-07-29T01:36:27;2.20;;;2.00;;
3131;SDS011;62090;52.330;9.104;2023-07-29T01:39:04;2.30;;;2.00;;
3131;SDS011;62090;52.330;9.104;2023-07-29T01:41:35;3.63;;;2.00;;
3131;SDS011;62090;52.330;9.104;2023-07-29T01:44:07;3.40;;;2.37;;
3131;SDS011;62090;52.330;9.104;2023-07-29T01:46:38;2.10;;;1.90;;
3131;SDS011;62090;52.330;9.104;2023-07-29T01:49:07;2.90;;;2.27;;
3131;SDS011;62090;52.330;9.104;2023-07-29T01:51:37;4.50;;;2.00;;
3131;SDS011;62090;52.330;9.104;2023-07-29T01:54:10;3.37;;;1.73;;
3131;SDS011;62090;52.330;9.104;2023-07-29T01:56:40;2.47;;;2.00;;
3131;SDS011;62090;52.330;9.104;2023-07-29T01:59:10;2.77;;;2.13;;
3131;SDS011;62090;52.330;9.104;2023-07-29T02:01:40;2.10;;;1.90;;
3131;SDS011;62090;52.330;9.104;2023-07-29T02:04:11;2.40;;;1.90;;
3131;SDS011;62090;52.330;9.104;2023-07-29T02:06:41;2.83;;;2.13;;
3131;SDS011;62090;52.330;9.104;2023-07-29T02:09:14;13.33;;;2.53;;
3131;SDS011;62090;52.330;9.104;2023-07-29T02:11:44;4.20;;;2.03;;
3131;SDS011;62090;52.330;9.104;2023-07-29T02:14:14;2.63;;;2.10;;
3131;SDS011;62090;52.330;9.104;2023-07-29T02:16:44;3.63;;;2.43;;
3131;SDS011;62090;52.330;9.104;2023-07-29T02:19:13;3.90;;;2.10;;
3131;SDS011;62090;52.330;9.104;2023-07-29T02:21:44;4.10;;;2.43;;
3131;SDS011;62090;52.330;9.104;2023-07-29T02:24:16;3.03;;;2.30;;
3131;SDS011;62090;52.330;9.104;2023-07-29T02:26:46;5.00;;;1.87;;
3131;SDS011;62090;52.330;9.104;2023-07-29T02:29:16;4.27;;;2.63;;
3131;SDS011;62090;52.330;9.104;2023-07-29T02:31:46;3.67;;;2.20;;
3131;SDS011;62090;52.330;9.104;2023-07-29T02:34:16;2.17;;;1.97;;
3131;SDS011;62090;52.330;9.104;2023-07-29T02:36:46;9.40;;;1.87;;
3131;SDS011;62090;52.330;9.104;2023-07-29T02:39:18;3.47;;;2.07;;
3131;SDS011;62090;52.330;9.104;2023-07-29T02:41:49;2.83;;;1.77;;
3131;SDS011;62090;52.330;9.104;2023-07-29T02:44:19;2.17;;;1.70;;
3131;SDS011;62090;52.330;9.104;2023-07-29T02:46:49;2.20;;;2.00;;
3131;SDS011;62090;52.330;9.104;2023-07-29T02:49:21;2.30;;;1.90;;
3131;SDS011;62090;52.330;9.104;2023-07-29T02:51:51;2.90;;;1.70;;
3131;SDS011;62090;52.330;9.104;2023-07-29T02:54:23;2.53;;;2.13;;
3131;SDS011;62090;52.330;9.104;2023-07-29T02:56:53;1.97;;;1.70;;
3131;SDS011;62090;52.330;9.104;2023-07-29T02:59:23;2.20;;;1.97;;
3131;SDS011;62090;52.330;9.104;2023-07-29T03:01:53;4.90;;;2.40;;
3131;SDS011;62090;52.330;9.104;2023-07-29T03:04:23;2.50;;;1.93;;
3131;SDS011;62090;52.330;9.104;2023-07-29T03:06:53;2.20;;;2.00;;
3131;SDS011;62090;52.330;9.104;2023-07-29T03:09:26;2.20;;;2.00;;
3131;SDS011;62090;52.330;9.104;2023-07-29T03:11:56;2.33;;;2.00;;
3131;SDS011;62090;52.330;9.104;2023-07-29T03:14:26;2.87;;;1.87;;
3131;SDS011;62090;52.330;9.104;2023-07-29T03:16:56;2.13;;;1.83;;
3131;SDS011;62090;52.330;9.104;2023-07-29T03:19:26;6.70;;;2.60;;
3131;SDS011;62090;52.330;9.104;2023-07-29T03:21:56;2.07;;;1.90;;
3131;SDS011;62090;52.330;9.104;2023-07-29T03:24:28;4.13;;;2.40;;
3131;SDS011;62090;52.330;9.104;2023-07-29T03:26:58;2.00;;;1.80;;
3131;SDS011;62090;52.330;9.104;2023-07-29T03:29:28;11.93;;;1.90;;
3131;SDS011;62090;52.330;9.104;2023-07-29T03:31:58;4.53;;;3.43;;
3131;SDS011;62090;52.330;9.104;2023-07-29T03:34:28;2.07;;;1.80;;
3131;SDS011;62090;52.330;9.104;2023-07-29T03:36:58;3.03;;;1.90;;
3131;SDS011;62090;52.330;9.104;2023-07-29T03:39:31;3.80;;;2.10;;
3131;SDS011;62090;52.330;9.104;2023-07-29T03:42:01;3.80;;;1.60;;
3131;SDS011;62090;52.330;9.104;2023-07-29T03:44:31;6.30;;;2.40;;
3131;SDS011;62090;52.330;9.104;2023-07-29T03:47:02;3.80;;;2.10;;
3131;SDS011;62090;52.330;9.104;2023-07-29T03:49:32;4.30;;;2.20;;
3131;SDS011;62090;52.330;9.104;2023-07-29T03:52:03;2.30;;;1.93;;
3131;SDS011;62090;52.330;9.104;2023-07-29T03:54:36;2.73;;;2.00;;
3131;SDS011;62090;52.330;9.104;2023-07-29T03:57:06;3.43;;;2.13;;
3131;SDS011;62090;52.330;9.104;2023-07-29T03:59:36;4.30;;;2.20;;
3131;SDS011;62090;52.330;9.104;2023-07-29T04:02:06;2.20;;;2.00;;
3131;SDS011;62090;52.330;9.104;2023-07-29T04:04:36;2.47;;;2.00;;
3131;SDS011;62090;52.330;9.104;2023-07-29T04:07:06;2.50;;;1.80;;
3131;SDS011;62090;52.330;9.104;2023-07-29T04:09:38;2.20;;;1.77;;
3131;SDS011;62090;52.330;9.104;2023-07-29T04:12:10;3.70;;;2.10;;
3131;SDS011;62090;52.330;9.104;2023-07-29T04:14:39;4.00;;;1.90;;
3131;SDS011;62090;52.330;9.104;2023-07-29T04:17:09;5.33;;;2.20;;
3131;SDS011;62090;52.330;9.104;2023-07-29T04:19:39;2.60;;;1.80;;
3131;SDS011;62090;52.330;9.104;2023-07-29T04:22:09;1.67;;;1.50;;
3131;SDS011;62090;52.330;9.104;2023-07-29T04:24:42;2.00;;;1.60;;
3131;SDS011;62090;52.330;9.104;2023-07-29T04:27:12;2.90;;;1.90;;
3131;SDS011;62090;52.330;9.104;2023-07-29T04:29:42;2.23;;;1.93;;
3131;SDS011;62090;52.330;9.104;2023-07-29T04:32:12;3.50;;;1.40;;
3131;SDS011;62090;52.330;9.104;2023-07-29T04:34:42;1.90;;;1.80;;
3131;SDS011;62090;52.330;9.104;2023-07-29T04:37:12;1.87;;;1.60;;
3131;SDS011;62090;52.330;9.104;2023-07-29T04:39:44;1.90;;;1.70;;
3131;SDS011;62090;52.330;9.104;2023-07-29T04:42:15;4.50;;;2.40;;
3131;SDS011;62090;52.330;9.104;2023-07-29T04:44:44;9.47;;;2.07;;
3131;SDS011;62090;52.330;9.104;2023-07-29T04:47:14;1.90;;;1.73;;
3131;SDS011;62090;52.330;9.104;2023-07-29T04:49:44;4.17;;;2.10;;
3131;SDS011;62090;52.330;9.104;2023-07-29T04:52:14;2.67;;;2.27;;
3131;SDS011;62090;52.330;9.104;2023-07-29T04:54:48;2.23;;;1.83;;
3131;SDS011;62090;52.330;9.104;2023-07-29T04:57:18;5.80;;;2.50;;
3131;SDS011;62090;52.330;9.104;2023-07-29T04:59:48;2.73;;;1.50;;
3131;SDS011;62090;52.330;9.104;2023-07-29T05:02:18;4.90;;;1.80;;
3131;SDS011;62090;52.330;9.104;2023-07-29T05:04:48;2.30;;;1.80;;
3131;SDS011;62090;52.330;9.104;2023-07-29T05:07:18;3.57;;;2.20;;
3131;SDS011;62090;52.330;9.104;2023-07-29T05:09:50;3.00;;;2.23;;
3131;SDS011;62090;52.330;9.104;2023-07-29T05:12:20;3.80;;;2.07;;
3131;SDS011;62090;52.330;9.104;2023-07-29T05:14:51;5.43;;;1.87;;
3131;SDS011;62090;52.330;9.104;2023-07-29T05:17:21;3.50;;;2.23;;
3131;SDS011;62090;52.330;9.104;2023-07-29T05:19:51;2.37;;;1.93;;
3131;SDS011;62090;52.330;9.104;2023-07-29T05:22:21;2.40;;;2.10;;
3131;SDS011;62090;52.330;9.104;2023-07-29T05:24:54;3.30;;;2.40;;
3131;SDS011;62090;52.330;9.104;2023-07-29T05:27:24;1.97;;;1.73;;
3131;SDS011;62090;52.330;9.104;2023-07-29T05:29:54;2.80;;;1.73;;
3131;SDS011;62090;52.330;9.104;2023-07-29T05:32:23;2.23;;;1.73;;
3131;SDS011;62090;52.330;9.104;2023-07-29T05:34:53;2.20;;;1.97;;
3131;SDS011;62090;52.330;9.104;2023-07-29T05:37:23;7.00;;;2.30;;
3131;SDS011;62090;52.330;9.104;2023-07-29T05:39:56;2.43;;;1.70;;
3131;SDS011;62090;52.330;9.104;2023-07-29T05:42:26;2.10;;;1.90;;
3131;SDS011;62090;52.330;9.104;2023-07-29T05:44:56;2.17;;;1.97;;
3131;SDS011;62090;52.330;9.104;2023-07-29T05:47:26;3.33;;;2.17;;
3131;SDS011;62090;52.330;9.104;2023-07-29T05:49:56;7.43;;;1.90;;
3131;SDS011;62090;52.330;9.104;2023-07-29T05:52:28;2.43;;;2.03;;
3131;SDS011;62090;52.330;9.104;2023-07-29T05:55:01;5.23;;;2.30;;
3131;SDS011;62090;52.330;9.104;2023-07-29T05:57:31;5.07;;;2.33;;
3131;SDS011;62090;52.330;9.104;2023-07-29T06:00:01;2.30;;;1.90;;
3131;SDS011;62090;52.330;9.104;2023-07-29T06:02:39;3.13;;;2.50;;
3131;SDS011;62090;52.330;9.104;2023-07-29T06:05:14;2.73;;;2.00;;
3131;SDS011;62090;52.330;9.104;2023-07-29T06:07:44;4.13;;;1.67;;
3131;SDS011;62090;52.330;9.104;2023-07-29T06:10:17;2.37;;;2.17;;
3131;SDS011;62090;52.330;9.104;2023-07-29T06:12:47;4.13;;;2.07;;
3131;SDS011;62090;52.330;9.104;2023-07-29T06:15:17;2.03;;;1.63;;
3131;SDS011;62090;52.330;9.104;2023-07-29T06:17:50;5.90;;;2.07;;
3131;SDS011;62090;52.330;9.104;2023-07-29T06:20:22;2.60;;;2.37;;
3131;SDS011;62090;52.330;9.104;2023-07-29T06:22:52;3.27;;;1.77;;
3131;SDS011;62090;52.330;9.104;2023-07-29T06:25:25;3.73;;;2.20;;
3131;SDS011;62090;52.330;9.104;2023-07-29T06:27:55;3.07;;;1.87;;
3131;SDS011;62090;52.330;9.104;2023-07-29T06:30:25;2.17;;;1.93;;
3131;SDS011;62090;52.330;9.104;2023-07-29T06:32:55;2.07;;;1.83;;
3131;SDS011;62090;52.330;9.104;2023-07-29T06:35:25;2.40;;;2.00;;
3131;SDS011;62090;52.330;9.104;2023-07-29T06:37:54;2.63;;;1.90;;
3131;SDS011;62090;52.330;9.104;2023-07-29T06:40:27;2.87;;;2.20;;
3131;SDS011;62090;52.330;9.104;2023-07-29T06:42:57;5.40;;;2.10;;
3131;SDS011;62090;52.330;9.104;2023-07-29T06:45:27;3.50;;;2.70;;
3131;SDS011;62090;52.330;9.104;2023-07-29T06:47:57;2.43;;;1.80;;
3131;SDS011;62090;52.330;9.104;2023-07-29T06:50:27;3.70;;;2.33;;
3131;SDS011;62090;52.330;9.104;2023-07-29T06:52:57;2.33;;;2.13;;
3131;SDS011;62090;52.330;9.104;2023-07-29T06:55:29;2.37;;;1.90;;
3131;SDS011;62090;52.330;9.104;2023-07-29T06:57:59;4.43;;;2.20;;
3131;SDS011;62090;52.330;9.104;2023-07-29T07:00:29;1.90;;;1.80;;
3131;SDS011;62090;52.330;9.104;2023-07-29T07:02:59;2.63;;;1.87;;
3131;SDS011;62090;52.330;9.104;2023-07-29T07:05:29;2.60;;;2.17;;
3131;SDS011;62090;52.330;9.104;2023-07-29T07:07:59;2.60;;;2.10;;
3131;SDS011;62090;52.330;9.104;2023-07-29T07:10:31;5.03;;;2.00;;
3131;SDS011;62090;52.330;9.104;2023-07-29T07:13:01;9.47;;;2.37;;
3131;SDS011;62090;52.330;9.104;2023-07-29T07:15:31;2.87;;;2.57;;
3131;SDS011;62090;52.330;9.104;2023-07-29T07:18:04;2.83;;;2.50;;
3131;SDS011;62090;52.330;9.104;2023-07-29T07:20:34;3.07;;;2.00;;
3131;SDS011;62090;52.330;9.104;2023-07-29T07:23:04;2.37;;;2.17;;
3131;SDS011;62090;52.330;9.104;2023-07-29T07:25:40;2.53;;;1.80;;
3131;SDS011;62090;52.330;9.104;2023-07-29T07:28:11;2.50;;;2.00;;
3131;SDS011;62090;52.330;9.104;2023-07-29T07:30:40;3.83;;;1.87;;
3131;SDS011;62090;52.330;9.104;2023-07-29T07:33:10;8.60;;;1.80;;
3131;SDS011;62090;52.330;9.104;2023-07-29T07:35:40;4.27;;;1.90;;
3131;SDS011;62090;52.330;9.104;2023-07-29T07:38:11;1.73;;;1.63;;
3131;SDS011;62090;52.330;9.104;2023-07-29T07:40:46;3.17;;;2.03;;
3131;SDS011;62090;52.330;9.104;2023-07-29T07:43:22;3.40;;;2.50;;
3131;SDS011;62090;52.330;9.104;2023-07-29T07:45:57;2.90;;;2.53;;
3131;SDS011;62090;52.330;9.104;2023-07-29T07:48:28;6.37;;;2.67;;
3131;SDS011;62090;52.330;9.104;2023-07-29T07:50:59;7.00;;;2.77;;
3131;SDS011;62090;52.330;9.104;2023-07-29T07:53:29;3.67;;;3.37;;
3131;SDS011;62090;52.330;9.104;2023-07-29T07:56:02;2.80;;;2.60;;
3131;SDS011;62090;52.330;9.104;2023-07-29T07:58:32;10.70;;;3.50;;
3131;SDS011;62090;52.330;9.104;2023-07-29T08:01:02;3.40;;;3.10;;
3131;SDS011;62090;52.330;9.104;2023-07-29T08:03:32;4.53;;;3.53;;
3131;SDS011;62090;52.330;9.104;2023-07-29T08:06:04;4.20;;;3.57;;
3131;SDS011;62090;52.330;9.104;2023-07-29T08:08:36;5.50;;;4.43;;
3131;SDS011;62090;52.330;9.104;2023-07-29T08:11:09;4.10;;;3.70;;
3131;SDS011;62090;52.330;9.104;2023-07-29T08:13:38;5.63;;;4.20;;
3131;SDS011;62090;52.330;9.104;2023-07-29T08:16:08;6.90;;;5.43;;
3131;SDS011;62090;52.330;9.104;2023-07-29T08:18:38;7.83;;;6.27;;
3131;SDS011;62090;52.330;9.104;2023-07-29T08:21:08;9.67;;;7.37;;
3131;SDS011;62090;52.330;9.104;2023-07-29T08:23:38;12.57;;;9.23;;
3131;SDS011;62090;52.330;9.104;2023-07-29T08:26:10;9.87;;;7.80;;
3131;SDS011;62090;52.330;9.104;2023-07-29T08:28:40;13.27;;;8.27;;
3131;SDS011;62090;52.330;9.104;2023-07-29T08:31:10;11.30;;;8.57;;
3131;SDS011;62090;52.330;9.104;2023-07-29T08:33:40;11.00;;;8.90;;
3131;SDS011;62090;52.330;9.104;2023-07-29T08:36:10;16.90;;;9.87;;
3131;SDS011;62090;52.330;9.104;2023-07-29T08:38:40;14.10;;;9.67;;
3131;SDS011;62090;52.330;9.104;2023-07-29T08:41:13;10.87;;;8.90;;
3131;SDS011;62090;52.330;9.104;2023-07-29T08:43:47;9.30;;;8.30;;
3131;SDS011;62090;52.330;9.104;2023-07-29T08:46:21;11.13;;;8.57;;
3131;SDS011;62090;52.330;9.104;2023-07-29T08:48:51;12.30;;;7.40;;
3131;SDS011;62090;52.330;9.104;2023-07-29T08:51:22;11.60;;;8.00;;
3131;SDS011;62090;52.330;9.104;2023-07-29T08:53:53;8.60;;;6.80;;
3131;SDS011;62090;52.330;9.104;2023-07-29T08:56:26;8.70;;;7.40;;
3131;SDS011;62090;52.330;9.104;2023-07-29T08:58:57;9.30;;;7.17;;
3131;SDS011;62090;52.330;9.104;2023-07-29T09:01:28;7.83;;;6.03;;
3131;SDS011;62090;52.330;9.104;2023-07-29T09:03:58;5.93;;;4.70;;
3131;SDS011;62090;52.330;9.104;2023-07-29T09:06:28;5.73;;;5.17;;
3131;SDS011;62090;52.330;9.104;2023-07-29T09:09:00;13.30;;;4.83;;
3131;SDS011;62090;52.330;9.104;2023-07-29T09:11:33;5.33;;;4.80;;
3131;SDS011;62090;52.330;9.104;2023-07-29T09:14:03;4.83;;;4.27;;
3131;SDS011;62090;52.330;9.104;2023-07-29T09:16:33;5.10;;;3.73;;
3131;SDS011;62090;52.330;9.104;2023-07-29T09:19:04;4.67;;;3.33;;
3131;SDS011;62090;52.330;9.104;2023-07-29T09:21:33;2.80;;;2.47;;
3131;SDS011;62090;52.330;9.104;2023-07-29T09:24:07;4.30;;;2.70;;
3131;SDS011;62090;52.330;9.104;2023-07-29T09:26:41;6.93;;;2.70;;
3131;SDS011;62090;52.330;9.104;2023-07-29T09:29:21;2.17;;;1.97;;
3131;SDS011;62090;52.330;9.104;2023-07-29T09:31:52;2.77;;;1.90;;
3131;SDS011;62090;52.330;9.104;2023-07-29T09:34:22;5.90;;;2.20;;
3131;SDS011;62090;52.330;9.104;2023-07-29T09:36:51;9.73;;;3.70;;
3131;SDS011;62090;52.330;9.104;2023-07-29T09:39:22;4.20;;;2.20;;
3131;SDS011;62090;52.330;9.104;2023-07-29T09:41:55;4.13;;;2.40;;
3131;SDS011;62090;52.330;9.104;2023-07-29T09:44:25;4.37;;;2.37;;
3131;SDS011;62090;52.330;9.104;2023-07-29T09:46:54;2.63;;;2.33;;
3131;SDS011;62090;52.330;9.104;2023-07-29T09:49:24;8.03;;;2.53;;
3131;SDS011;62090;52.330;9.104;2023-07-29T09:51:55;3.30;;;2.43;;
3131;SDS011;62090;52.330;9.104;2023-07-29T09:54:26;5.40;;;2.70;;
3131;SDS011;62090;52.330;9.104;2023-07-29T09:56:58;3.57;;;2.23;;
3131;SDS011;62090;52.330;9.104;2023-07-29T09:59:30;2.83;;;1.70;;
3131;SDS011;62090;52.330;9.104;2023-07-29T10:02:03;5.13;;;2.03;;
3131;SDS011;62090;52.330;9.104;2023-07-29T10:04:33;3.27;;;1.67;;
3131;SDS011;62090;52.330;9.104;2023-07-29T10:07:04;3.37;;;1.30;;
3131;SDS011;62090;52.330;9.104;2023-07-29T10:09:34;1.80;;;1.30;;
3131;SDS011;62090;52.330;9.104;2023-07-29T10:12:08;1.53;;;1.33;;
3131;SDS011;62090;52.330;9.104;2023-07-29T10:14:39;1.43;;;1.17;;
3131;SDS011;62090;52.330;9.104;2023-07-29T10:17:10;2.07;;;1.40;;
3131;SDS011;62090;52.330;9.104;2023-07-29T10:19:40;4.10;;;1.23;;
3131;SDS011;62090;52.330;9.104;2023-07-29T10:22:12;1.13;;;1.03;;
3131;SDS011;62090;52.330;9.104;2023-07-29T10:24:46;6.27;;;1.23;;
3131;SDS011;62090;52.330;9.104;2023-07-29T10:27:21;5.40;;;1.13;;
3131;SDS011;62090;52.330;9.104;2023-07-29T10:29:54;2.30;;;1.50;;
3131;SDS011;62090;52.330;9.104;2023-07-29T10:32:25;1.70;;;1.30;;
3131;SDS011;62090;52.330;9.104;2023-07-29T10:34:56;3.43;;;1.70;;
3131;SDS011;62090;52.330;9.104;2023-07-29T10:37:26;1.10;;;0.93;;
3131;SDS011;62090;52.330;9.104;2023-07-29T10:39:56;1.20;;;1.10;;
3131;SDS011;62090;52.330;9.104;2023-07-29T10:42:28;1.00;;;0.90;;
3131;SDS011;62090;52.330;9.104;2023-07-29T10:44:58;1.00;;;0.90;;
3131;SDS011;62090;52.330;9.104;2023-07-29T10:47:28;1.03;;;0.83;;
3131;SDS011;62090;52.330;9.104;2023-07-29T10:49:59;1.03;;;0.80;;
3131;SDS011;62090;52.330;9.104;2023-07-29T10:52:30;0.83;;;0.80;;
3131;SDS011;62090;52.330;9.104;2023-07-29T10:58:07;2.00;;;1.10;;
3131;SDS011;62090;52.330;9.104;2023-07-29T11:00:41;1.00;;;0.70;;
3131;SDS011;62090;52.330;9.104;2023-07-29T11:03:12;1.83;;;0.80;;
3131;SDS011;62090;52.330;9.104;2023-07-29T11:05:45;0.90;;;0.80;;
3131;SDS011;62090;52.330;9.104;2023-07-29T11:08:17;1.00;;;0.80;;
3131;SDS011;62090;52.330;9.104;2023-07-29T11:10:58;1.00;;;0.87;;
3131;SDS011;62090;52.330;9.104;2023-07-29T11:13:33;2.13;;;0.93;;
3131;SDS011;62090;52.330;9.104;2023-07-29T11:16:04;1.23;;;0.80;;
3131;SDS011;62090;52.330;9.104;2023-07-29T11:18:35;5.47;;;0.90;;
3131;SDS011;62090;52.330;9.104;2023-07-29T11:21:06;1.00;;;0.90;;
3131;SDS011;62090;52.330;9.104;2023-07-29T11:23:36;1.53;;;1.00;;
3131;SDS011;62090;52.330;9.104;2023-07-29T11:26:06;1.17;;;0.77;;
3131;SDS011;62090;52.330;9.104;2023-07-29T11:28:41;1.03;;;0.90;;
3131;SDS011;62090;52.330;9.104;2023-07-29T11:31:11;1.00;;;0.80;;
3131;SDS011;62090;52.330;9.104;2023-07-29T11:33:41;1.27;;;0.80;;
3131;SDS011;62090;52.330;9.104;2023-07-29T11:36:17;1.03;;;0.87;;
3131;SDS011;62090;52.330;9.104;2023-07-29T11:38:50;1.23;;;0.90;;
3131;SDS011;62090;52.330;9.104;2023-07-29T11:41:20;1.23;;;0.80;;
3131;SDS011;62090;52.330;9.104;2023-07-29T11:43:53;4.40;;;1.17;;
3131;SDS011;62090;52.330;9.104;2023-07-29T11:46:23;1.47;;;0.87;;
3131;SDS011;62090;52.330;9.104;2023-07-29T11:48:54;3.80;;;0.70;;
3131;SDS011;62090;52.330;9.104;2023-07-29T11:51:25;3.60;;;0.93;;
3131;SDS011;62090;52.330;9.104;2023-07-29T11:53:55;1.03;;;0.80;;
3131;SDS011;62090;52.330;9.104;2023-07-29T11:56:25;1.10;;;0.70;;
3131;SDS011;62090;52.330;9.104;2023-07-29T11:58:59;1.43;;;0.80;;
3131;SDS011;62090;52.330;9.104;2023-07-29T12:01:30;1.77;;;0.70;;
3131;SDS011;62090;52.330;9.104;2023-07-29T12:04:00;1.20;;;0.90;;
3131;SDS011;62090;52.330;9.104;2023-07-29T12:06:30;0.80;;;0.80;;
3131;SDS011;62090;52.330;9.104;2023-07-29T12:09:01;1.07;;;0.97;;
3131;SDS011;62090;52.330;9.104;2023-07-29T12:11:31;2.17;;;0.80;;
3131;SDS011;62090;52.330;9.104;2023-07-29T12:14:05;1.40;;;1.10;;
3131;SDS011;62090;52.330;9.104;2023-07-29T12:16:42;4.13;;;1.10;;
3131;SDS011;62090;52.330;9.104;2023-07-29T12:19:13;1.97;;;1.00;;
3131;SDS011;62090;52.330;9.104;2023-07-29T12:21:44;1.10;;;0.80;;
3131;SDS011;62090;52.330;9.104;2023-07-29T12:24:14;1.40;;;0.90;;
3131;SDS011;62090;52.330;9.104;2023-07-29T12:26:44;2.10;;;1.00;;
3131;SDS011;62090;52.330;9.104;2023-07-29T12:29:19;3.37;;;1.30;;
3131;SDS011;62090;52.330;9.104;2023-07-29T12:31:53;1.20;;;0.80;;
3131;SDS011;62090;52.330;9.104;2023-07-29T12:34:27;6.10;;;1.30;;
3131;SDS011;62090;52.330;9.104;2023-07-29T12:36:58;1.20;;;1.07;;
3131;SDS011;62090;52.330;9.104;2023-07-29T12:39:31;1.20;;;1.00;;
3131;SDS011;62090;52.330;9.104;2023-07-29T12:42:02;2.53;;;0.90;;
3131;SDS011;62090;52.330;9.104;2023-07-29T12:44:36;4.00;;;1.00;;
3131;SDS011;62090;52.330;9.104;2023-07-29T12:47:07;1.00;;;0.80;;
3131;SDS011;62090;52.330;9.104;2023-07-29T12:49:38;1.07;;;0.90;;
3131;SDS011;62090;52.330;9.104;2023-07-29T12:52:08;1.20;;;0.80;;
3131;SDS011;62090;52.330;9.104;2023-07-29T12:54:38;3.90;;;0.90;;
3131;SDS011;62090;52.330;9.104;2023-07-29T12:57:11;1.10;;;0.80;;
3131;SDS011;62090;52.330;9.104;2023-07-29T12:59:43;1.03;;;0.77;;
3131;SDS011;62090;52.330;9.104;2023-07-29T13:02:13;1.60;;;1.00;;
3131;SDS011;62090;52.330;9.104;2023-07-29T13:04:43;1.20;;;0.80;;
3131;SDS011;62090;52.330;9.104;2023-07-29T13:07:13;3.43;;;1.03;;
3131;SDS011;62090;52.330;9.104;2023-07-29T13:09:43;1.00;;;0.90;;
3131;SDS011;62090;52.330;9.104;2023-07-29T13:12:12;0.90;;;0.73;;
3131;SDS011;62090;52.330;9.104;2023-07-29T13:14:45;0.90;;;0.80;;
3131;SDS011;62090;52.330;9.104;2023-07-29T13:17:15;1.40;;;1.00;;
3131;SDS011;62090;52.330;9.104;2023-07-29T13:19:45;1.47;;;1.07;;
3131;SDS011;62090;52.330;9.104;2023-07-29T13:22:15;3.93;;;1.03;;
3131;SDS011;62090;52.330;9.104;2023-07-29T13:24:45;6.50;;;0.87;;
3131;SDS011;62090;52.330;9.104;2023-07-29T13:27:14;1.57;;;1.07;;
3131;SDS011;62090;52.330;9.104;2023-07-29T13:29:47;1.30;;;0.90;;
3131;SDS011;62090;52.330;9.104;2023-07-29T13:32:17;1.20;;;1.07;;
3131;SDS011;62090;52.330;9.104;2023-07-29T13:34:47;4.20;;;0.90;;
3131;SDS011;62090;52.330;9.104;2023-07-29T13:37:17;3.10;;;0.90;;
3131;SDS011;62090;52.330;9.104;2023-07-29T13:39:47;2.33;;;1.20;;
3131;SDS011;62090;52.330;9.104;2023-07-29T13:42:17;1.40;;;1.20;;
3131;SDS011;62090;52.330;9.104;2023-07-29T13:44:49;2.33;;;1.23;;
3131;SDS011;62090;52.330;9.104;2023-07-29T13:47:19;1.30;;;1.20;;
3131;SDS011;62090;52.330;9.104;2023-07-29T13:49:49;1.83;;;1.40;;
3131;SDS011;62090;52.330;9.104;2023-07-29T13:52:19;1.63;;;1.53;;
3131;SDS011;62090;52.330;9.104;2023-07-29T13:54:49;2.43;;;1.00;;
3131;SDS011;62090;52.330;9.104;2023-07-29T13:57:18;1.77;;;1.23;;
3131;SDS011;62090;52.330;9.104;2023-07-29T13:59:51;3.43;;;1.30;;
3131;SDS011;62090;52.330;9.104;2023-07-29T14:02:21;4.40;;;0.90;;
3131;SDS011;62090;52.330;9.104;2023-07-29T14:04:52;2.20;;;1.10;;
3131;SDS011;62090;52.330;9.104;2023-07-29T14:07:23;1.43;;;0.90;;
3131;SDS011;62090;52.330;9.104;2023-07-29T14:09:53;1.93;;;0.90;;
3131;SDS011;62090;52.330;9.104;2023-07-29T14:12:26;1.07;;;0.83;;
3131;SDS011;62090;52.330;9.104;2023-07-29T14:14:58;1.20;;;0.80;;
3131;SDS011;62090;52.330;9.104;2023-07-29T14:17:29;1.30;;;1.00;;
3131;SDS011;62090;52.330;9.104;2023-07-29T14:19:58;3.30;;;1.00;;
3131;SDS011;62090;52.330;9.104;2023-07-29T14:22:29;4.60;;;1.17;;
3131;SDS011;62090;52.330;9.104;2023-07-29T14:24:59;1.00;;;0.70;;
3131;SDS011;62090;52.330;9.104;2023-07-29T14:27:29;1.87;;;1.13;;
3131;SDS011;62090;52.330;9.104;2023-07-29T14:30:01;1.30;;;1.10;;
3131;SDS011;62090;52.330;9.104;2023-07-29T14:32:31;1.40;;;0.90;;
3131;SDS011;62090;52.330;9.104;2023-07-29T14:35:02;2.00;;;1.10;;
3131;SDS011;62090;52.330;9.104;2023-07-29T14:37:32;1.30;;;0.90;;
3131;SDS011;62090;52.330;9.104;2023-07-29T14:40:02;0.97;;;0.80;;
3131;SDS011;62090;52.330;9.104;2023-07-29T14:42:32;1.23;;;1.00;;
3131;SDS011;62090;52.330;9.104;2023-07-29T14:45:05;1.33;;;0.97;;
3131;SDS011;62090;52.330;9.104;2023-07-29T14:47:36;1.30;;;1.00;;
3131;SDS011;62090;52.330;9.104;2023-07-29T14:50:06;3.80;;;1.20;;
3131;SDS011;62090;52.330;9.104;2023-07-29T14:52:36;3.07;;;1.10;;
3131;SDS011;62090;52.330;9.104;2023-07-29T14:55:06;1.93;;;1.20;;
3131;SDS011;62090;52.330;9.104;2023-07-29T14:57:37;1.10;;;0.90;;
3131;SDS011;62090;52.330;9.104;2023-07-29T15:00:11;1.73;;;0.97;;
3131;SDS011;62090;52.330;9.104;2023-07-29T15:02:41;0.80;;;0.77;;
3131;SDS011;62090;52.330;9.104;2023-07-29T15:05:11;2.30;;;1.20;;
3131;SDS011;62090;52.330;9.104;2023-07-29T15:07:41;1.67;;;1.17;;
3131;SDS011;62090;52.330;9.104;2023-07-29T15:10:13;1.10;;;1.00;;
3131;SDS011;62090;52.330;9.104;2023-07-29T15:12:44;1.27;;;1.00;;
3131;SDS011;62090;52.330;9.104;2023-07-29T15:15:17;3.30;;;1.10;;
3131;SDS011;62090;52.330;9.104;2023-07-29T15:17:46;1.03;;;0.93;;
3131;SDS011;62090;52.330;9.104;2023-07-29T15:20:16;2.63;;;1.10;;
3131;SDS011;62090;52.330;9.104;2023-07-29T15:22:46;1.50;;;1.10;;
3131;SDS011;62090;52.330;9.104;2023-07-29T15:25:16;3.77;;;1.30;;
3131;SDS011;62090;52.330;9.104;2023-07-29T15:27:46;3.00;;;1.33;;